sensor_id;sensor_type;location;lat;lon;timestamp;P1;durP1;ratioP1;P2;durP2;ratioP2
46729;SDS011;32476;50.002;11.854;2023-01-08T00:01:16;27.77;;;17.57;;
46729;SDS011;32476;50.002;11.854;2023-01-08T00:03:43;30.77;;;19.93;;
46729;SDS011;32476;50.002;11.854;2023-01-08T00:06:10;30.93;;;18.63;;
46729;SDS011;32476;50.002;11.854;2023-01-08T00:08:41;28.50;;;18.10;;
46729;SDS011;32476;50.002;11.854;2023-01-08T00:11:07;29.13;;;19.10;;
46729;SDS011;32476;50.002;11.854;2023-01-08T00:13:33;27.90;;;16.63;;
46729;SDS011;32476;50.002;11.854;2023-01-08T00:16:04;27.57;;;18.23;;
46729;SDS011;32476;50.002;11.854;2023-01-08T00:18:36;25.67;;;16.63;;
46729;SDS011;32476;50.002;11.854;2023-01-08T00:21:04;27.70;;;18.10;;
46729;SDS011;32476;50.002;11.854;2023-01-08T00:23:30;28.30;;;17.83;;
46729;SDS011;32476;50.002;11.854;2023-01-08T00:25:59;28.07;;;18.00;;
46729;SDS011;32476;50.002;11.854;2023-01-08T00:28:28;27.20;;;18.10;;
46729;SDS011;32476;50.002;11.854;2023-01-08T00:30:54;23.37;;;15.83;;
46729;SDS011;32476;50.002;11.854;2023-01-08T00:33:20;30.47;;;17.47;;
46729;SDS011;32476;50.002;11.854;2023-01-08T00:35:48;26.73;;;17.23;;
46729;SDS011;32476;50.002;11.854;2023-01-08T00:38:14;25.23;;;17.03;;
46729;SDS011;32476;50.002;11.854;2023-01-08T00:40:40;26.73;;;16.97;;
46729;SDS011;32476;50.002;11.854;2023-01-08T00:43:08;25.60;;;17.00;;
46729;SDS011;32476;50.002;11.854;2023-01-08T00:45:34;27.03;;;16.67;;
46729;SDS011;32476;50.002;11.854;2023-01-08T00:47:59;26.20;;;16.63;;
46729;SDS011;32476;50.002;11.854;2023-01-08T00:50:27;23.57;;;15.60;;
46729;SDS011;32476;50.002;11.854;2023-01-08T00:52:53;24.77;;;15.80;;
46729;SDS011;32476;50.002;11.854;2023-01-08T00:55:19;24.43;;;15.97;;
46729;SDS011;32476;50.002;11.854;2023-01-08T00:57:46;24.07;;;15.63;;
46729;SDS011;32476;50.002;11.854;2023-01-08T01:00:13;24.27;;;15.07;;
46729;SDS011;32476;50.002;11.854;2023-01-08T01:02:41;26.97;;;17.80;;
46729;SDS011;32476;50.002;11.854;2023-01-08T01:05:09;29.37;;;17.70;;
46729;SDS011;32476;50.002;11.854;2023-01-08T01:07:39;33.93;;;20.23;;
46729;SDS011;32476;50.002;11.854;2023-01-08T01:10:06;38.43;;;20.57;;
46729;SDS011;32476;50.002;11.854;2023-01-08T01:12:38;35.90;;;20.23;;
46729;SDS011;32476;50.002;11.854;2023-01-08T01:15:05;36.17;;;20.03;;
46729;SDS011;32476;50.002;11.854;2023-01-08T01:17:39;35.20;;;20.57;;
46729;SDS011;32476;50.002;11.854;2023-01-08T01:20:07;54.50;;;22.97;;
46729;SDS011;32476;50.002;11.854;2023-01-08T01:22:36;55.77;;;24.53;;
46729;SDS011;32476;50.002;11.854;2023-01-08T01:25:04;50.20;;;23.83;;
46729;SDS011;32476;50.002;11.854;2023-01-08T01:27:30;42.83;;;21.37;;
46729;SDS011;32476;50.002;11.854;2023-01-08T01:29:56;31.47;;;19.20;;
46729;SDS011;32476;50.002;11.854;2023-01-08T01:32:24;34.73;;;20.50;;
46729;SDS011;32476;50.002;11.854;2023-01-08T01:34:50;61.50;;;21.27;;
46729;SDS011;32476;50.002;11.854;2023-01-08T01:37:16;88.67;;;24.43;;
46729;SDS011;32476;50.002;11.854;2023-01-08T01:39:43;121.63;;;25.43;;
46729;SDS011;32476;50.002;11.854;2023-01-08T01:42:11;84.67;;;25.57;;
46729;SDS011;32476;50.002;11.854;2023-01-08T01:45:03;118.70;;;27.30;;
46729;SDS011;32476;50.002;11.854;2023-01-08T01:50:41;245.67;;;36.60;;
46729;SDS011;32476;50.002;11.854;2023-01-08T01:53:12;111.77;;;28.83;;
46729;SDS011;32476;50.002;11.854;2023-01-08T01:55:45;90.23;;;26.77;;
46729;SDS011;32476;50.002;11.854;2023-01-08T01:58:47;106.00;;;28.23;;
46729;SDS011;32476;50.002;11.854;2023-01-08T02:01:07;316.57;;;38.13;;
46729;SDS011;32476;50.002;11.854;2023-01-08T02:03:37;187.40;;;31.27;;
46729;SDS011;32476;50.002;11.854;2023-01-08T02:06:10;150.77;;;29.80;;
46729;SDS011;32476;50.002;11.854;2023-01-08T02:09:00;121.77;;;27.07;;
46729;SDS011;32476;50.002;11.854;2023-01-08T02:12:18;511.47;;;53.90;;
46729;SDS011;32476;50.002;11.854;2023-01-08T02:15:13;282.50;;;36.30;;
46729;SDS011;32476;50.002;11.854;2023-01-08T02:17:54;56.63;;;22.03;;
46729;SDS011;32476;50.002;11.854;2023-01-08T02:20:29;85.53;;;25.33;;
46729;SDS011;32476;50.002;11.854;2023-01-08T02:23:10;35.87;;;21.17;;
46729;SDS011;32476;50.002;11.854;2023-01-08T02:28:33;35.60;;;19.80;;
46729;SDS011;32476;50.002;11.854;2023-01-08T02:31:06;45.10;;;21.47;;
46729;SDS011;32476;50.002;11.854;2023-01-08T02:33:34;40.20;;;20.23;;
46729;SDS011;32476;50.002;11.854;2023-01-08T02:36:14;34.40;;;19.93;;
46729;SDS011;32476;50.002;11.854;2023-01-08T02:41:34;31.03;;;19.10;;
46729;SDS011;32476;50.002;11.854;2023-01-08T02:44:36;32.87;;;19.53;;
46729;SDS011;32476;50.002;11.854;2023-01-08T02:47:38;34.13;;;18.73;;
46729;SDS011;32476;50.002;11.854;2023-01-08T02:50:26;34.60;;;19.03;;
46729;SDS011;32476;50.002;11.854;2023-01-08T02:55:47;35.27;;;20.13;;
46729;SDS011;32476;50.002;11.854;2023-01-08T02:58:17;37.20;;;19.93;;
46729;SDS011;32476;50.002;11.854;2023-01-08T03:00:47;30.10;;;16.93;;
46729;SDS011;32476;50.002;11.854;2023-01-08T03:03:21;28.47;;;16.90;;
46729;SDS011;32476;50.002;11.854;2023-01-08T03:05:57;27.37;;;17.70;;
46729;SDS011;32476;50.002;11.854;2023-01-08T03:08:27;40.77;;;23.03;;
46729;SDS011;32476;50.002;11.854;2023-01-08T03:10:57;41.97;;;22.83;;
46729;SDS011;32476;50.002;11.854;2023-01-08T03:13:44;42.63;;;24.03;;
46729;SDS011;32476;50.002;11.854;2023-01-08T03:16:37;41.40;;;24.13;;
46729;SDS011;32476;50.002;11.854;2023-01-08T03:19:07;39.47;;;22.03;;
46729;SDS011;32476;50.002;11.854;2023-01-08T03:21:47;44.50;;;22.60;;
46729;SDS011;32476;50.002;11.854;2023-01-08T03:24:17;37.27;;;22.10;;
46729;SDS011;32476;50.002;11.854;2023-01-08T03:26:54;37.90;;;23.07;;
46729;SDS011;32476;50.002;11.854;2023-01-08T03:29:23;35.07;;;19.97;;
46729;SDS011;32476;50.002;11.854;2023-01-08T03:31:51;37.70;;;20.50;;
46729;SDS011;32476;50.002;11.854;2023-01-08T03:34:23;38.50;;;21.20;;
46729;SDS011;32476;50.002;11.854;2023-01-08T03:36:51;38.83;;;21.87;;
46729;SDS011;32476;50.002;11.854;2023-01-08T03:39:25;33.80;;;21.13;;
46729;SDS011;32476;50.002;11.854;2023-01-08T03:41:58;35.73;;;20.67;;
46729;SDS011;32476;50.002;11.854;2023-01-08T03:44:29;39.60;;;22.60;;
46729;SDS011;32476;50.002;11.854;2023-01-08T03:46:57;41.53;;;23.63;;
46729;SDS011;32476;50.002;11.854;2023-01-08T03:49:23;41.53;;;24.53;;
46729;SDS011;32476;50.002;11.854;2023-01-08T03:51:52;52.93;;;29.50;;
46729;SDS011;32476;50.002;11.854;2023-01-08T03:54:22;38.30;;;21.87;;
46729;SDS011;32476;50.002;11.854;2023-01-08T03:56:50;33.87;;;19.93;;
46729;SDS011;32476;50.002;11.854;2023-01-08T03:59:16;35.97;;;20.83;;
46729;SDS011;32476;50.002;11.854;2023-01-08T04:01:43;36.90;;;22.03;;
46729;SDS011;32476;50.002;11.854;2023-01-08T04:04:09;42.73;;;24.20;;
46729;SDS011;32476;50.002;11.854;2023-01-08T04:06:36;41.77;;;23.20;;
46729;SDS011;32476;50.002;11.854;2023-01-08T04:09:04;35.23;;;21.50;;
46729;SDS011;32476;50.002;11.854;2023-01-08T04:11:30;35.50;;;21.50;;
46729;SDS011;32476;50.002;11.854;2023-01-08T04:13:57;39.87;;;22.13;;
46729;SDS011;32476;50.002;11.854;2023-01-08T04:16:24;37.57;;;22.40;;
46729;SDS011;32476;50.002;11.854;2023-01-08T04:18:50;39.90;;;22.77;;
46729;SDS011;32476;50.002;11.854;2023-01-08T04:21:16;41.93;;;22.47;;
46729;SDS011;32476;50.002;11.854;2023-01-08T04:23:44;40.20;;;22.57;;
46729;SDS011;32476;50.002;11.854;2023-01-08T04:26:09;34.47;;;22.20;;
46729;SDS011;32476;50.002;11.854;2023-01-08T04:28:35;39.23;;;22.37;;
46729;SDS011;32476;50.002;11.854;2023-01-08T04:31:06;39.17;;;22.93;;
46729;SDS011;32476;50.002;11.854;2023-01-08T04:33:33;35.43;;;21.80;;
46729;SDS011;32476;50.002;11.854;2023-01-08T04:35:59;38.53;;;23.17;;
46729;SDS011;32476;50.002;11.854;2023-01-08T04:38:27;41.07;;;23.90;;
46729;SDS011;32476;50.002;11.854;2023-01-08T04:40:56;38.23;;;22.83;;
46729;SDS011;32476;50.002;11.854;2023-01-08T04:43:28;38.73;;;22.10;;
46729;SDS011;32476;50.002;11.854;2023-01-08T04:45:58;37.40;;;22.33;;
46729;SDS011;32476;50.002;11.854;2023-01-08T04:48:26;36.87;;;22.90;;
46729;SDS011;32476;50.002;11.854;2023-01-08T04:50:56;38.83;;;22.90;;
46729;SDS011;32476;50.002;11.854;2023-01-08T04:53:24;40.03;;;24.00;;
46729;SDS011;32476;50.002;11.854;2023-01-08T04:55:51;38.40;;;22.60;;
46729;SDS011;32476;50.002;11.854;2023-01-08T04:58:18;37.23;;;22.87;;
46729;SDS011;32476;50.002;11.854;2023-01-08T05:00:45;39.97;;;23.33;;
46729;SDS011;32476;50.002;11.854;2023-01-08T05:03:14;37.23;;;22.63;;
46729;SDS011;32476;50.002;11.854;2023-01-08T05:05:42;36.03;;;22.23;;
46729;SDS011;32476;50.002;11.854;2023-01-08T05:08:07;35.87;;;22.37;;
46729;SDS011;32476;50.002;11.854;2023-01-08T05:10:33;34.93;;;21.70;;
46729;SDS011;32476;50.002;11.854;2023-01-08T05:13:01;37.97;;;23.37;;
46729;SDS011;32476;50.002;11.854;2023-01-08T05:15:27;37.83;;;22.53;;
46729;SDS011;32476;50.002;11.854;2023-01-08T05:18:00;37.23;;;22.57;;
46729;SDS011;32476;50.002;11.854;2023-01-08T05:20:30;37.07;;;21.90;;
46729;SDS011;32476;50.002;11.854;2023-01-08T05:22:57;36.53;;;23.07;;
46729;SDS011;32476;50.002;11.854;2023-01-08T05:25:23;38.30;;;22.67;;
46729;SDS011;32476;50.002;11.854;2023-01-08T05:27:51;36.33;;;22.67;;
46729;SDS011;32476;50.002;11.854;2023-01-08T05:30:17;35.07;;;22.57;;
46729;SDS011;32476;50.002;11.854;2023-01-08T05:32:44;34.03;;;21.50;;
46729;SDS011;32476;50.002;11.854;2023-01-08T05:35:12;33.80;;;21.27;;
46729;SDS011;32476;50.002;11.854;2023-01-08T05:37:38;37.13;;;22.03;;
46729;SDS011;32476;50.002;11.854;2023-01-08T05:40:04;35.60;;;22.77;;
46729;SDS011;32476;50.002;11.854;2023-01-08T05:42:33;38.00;;;23.30;;
46729;SDS011;32476;50.002;11.854;2023-01-08T05:45:01;36.03;;;23.03;;
46729;SDS011;32476;50.002;11.854;2023-01-08T05:47:29;37.40;;;23.30;;
46729;SDS011;32476;50.002;11.854;2023-01-08T05:49:58;41.37;;;25.33;;
46729;SDS011;32476;50.002;11.854;2023-01-08T05:52:24;39.90;;;24.17;;
46729;SDS011;32476;50.002;11.854;2023-01-08T05:54:51;39.93;;;23.30;;
46729;SDS011;32476;50.002;11.854;2023-01-08T05:57:18;38.97;;;23.30;;
46729;SDS011;32476;50.002;11.854;2023-01-08T05:59:44;38.30;;;21.67;;
46729;SDS011;32476;50.002;11.854;2023-01-08T06:02:10;36.73;;;23.20;;
46729;SDS011;32476;50.002;11.854;2023-01-08T06:04:38;35.40;;;21.80;;
46729;SDS011;32476;50.002;11.854;2023-01-08T06:07:04;34.97;;;22.13;;
46729;SDS011;32476;50.002;11.854;2023-01-08T06:09:29;40.17;;;23.10;;
46729;SDS011;32476;50.002;11.854;2023-01-08T06:11:57;42.80;;;25.50;;
46729;SDS011;32476;50.002;11.854;2023-01-08T06:14:23;39.13;;;23.17;;
46729;SDS011;32476;50.002;11.854;2023-01-08T06:16:49;35.30;;;22.50;;
46729;SDS011;32476;50.002;11.854;2023-01-08T06:19:16;32.93;;;21.03;;
46729;SDS011;32476;50.002;11.854;2023-01-08T06:21:43;33.37;;;20.53;;
46729;SDS011;32476;50.002;11.854;2023-01-08T06:24:09;36.13;;;20.10;;
46729;SDS011;32476;50.002;11.854;2023-01-08T06:26:37;31.30;;;19.33;;
46729;SDS011;32476;50.002;11.854;2023-01-08T06:29:02;29.53;;;19.50;;
46729;SDS011;32476;50.002;11.854;2023-01-08T06:31:28;31.73;;;19.47;;
46729;SDS011;32476;50.002;11.854;2023-01-08T06:33:56;34.27;;;20.73;;
46729;SDS011;32476;50.002;11.854;2023-01-08T06:36:22;30.63;;;20.93;;
46729;SDS011;32476;50.002;11.854;2023-01-08T06:38:47;36.90;;;22.43;;
46729;SDS011;32476;50.002;11.854;2023-01-08T06:41:15;31.43;;;19.53;;
46729;SDS011;32476;50.002;11.854;2023-01-08T06:43:41;34.07;;;20.93;;
46729;SDS011;32476;50.002;11.854;2023-01-08T06:46:07;31.80;;;19.27;;
46729;SDS011;32476;50.002;11.854;2023-01-08T06:48:35;35.73;;;21.07;;
46729;SDS011;32476;50.002;11.854;2023-01-08T06:51:02;34.10;;;21.43;;
46729;SDS011;32476;50.002;11.854;2023-01-08T06:53:29;31.10;;;19.40;;
46729;SDS011;32476;50.002;11.854;2023-01-08T06:55:56;31.60;;;19.70;;
46729;SDS011;32476;50.002;11.854;2023-01-08T06:58:26;31.90;;;19.53;;
46729;SDS011;32476;50.002;11.854;2023-01-08T07:00:53;32.77;;;19.30;;
46729;SDS011;32476;50.002;11.854;2023-01-08T07:03:20;36.40;;;20.43;;
46729;SDS011;32476;50.002;11.854;2023-01-08T07:05:46;36.13;;;20.23;;
46729;SDS011;32476;50.002;11.854;2023-01-08T07:08:15;37.10;;;21.20;;
46729;SDS011;32476;50.002;11.854;2023-01-08T07:10:43;36.93;;;20.30;;
46729;SDS011;32476;50.002;11.854;2023-01-08T07:13:10;34.77;;;19.87;;
46729;SDS011;32476;50.002;11.854;2023-01-08T07:15:37;37.87;;;20.93;;
46729;SDS011;32476;50.002;11.854;2023-01-08T07:18:07;37.40;;;20.00;;
46729;SDS011;32476;50.002;11.854;2023-01-08T07:20:35;35.57;;;21.13;;
46729;SDS011;32476;50.002;11.854;2023-01-08T07:23:04;41.37;;;21.37;;
46729;SDS011;32476;50.002;11.854;2023-01-08T07:25:35;37.90;;;21.37;;
46729;SDS011;32476;50.002;11.854;2023-01-08T07:28:01;38.17;;;20.07;;
46729;SDS011;32476;50.002;11.854;2023-01-08T07:30:27;42.43;;;22.53;;
46729;SDS011;32476;50.002;11.854;2023-01-08T07:32:58;43.03;;;22.37;;
46729;SDS011;32476;50.002;11.854;2023-01-08T07:35:25;45.17;;;22.53;;
46729;SDS011;32476;50.002;11.854;2023-01-08T07:37:51;43.77;;;21.87;;
46729;SDS011;32476;50.002;11.854;2023-01-08T07:40:18;39.93;;;21.50;;
46729;SDS011;32476;50.002;11.854;2023-01-08T07:42:44;37.13;;;21.47;;
46729;SDS011;32476;50.002;11.854;2023-01-08T07:45:10;37.00;;;21.90;;
46729;SDS011;32476;50.002;11.854;2023-01-08T07:47:38;37.77;;;22.10;;
46729;SDS011;32476;50.002;11.854;2023-01-08T07:50:04;41.90;;;22.43;;
46729;SDS011;32476;50.002;11.854;2023-01-08T07:52:30;38.83;;;21.30;;
46729;SDS011;32476;50.002;11.854;2023-01-08T07:54:58;36.70;;;21.60;;
46729;SDS011;32476;50.002;11.854;2023-01-08T07:57:24;41.03;;;22.13;;
46729;SDS011;32476;50.002;11.854;2023-01-08T07:59:51;39.87;;;21.97;;
46729;SDS011;32476;50.002;11.854;2023-01-08T08:02:18;41.57;;;22.73;;
46729;SDS011;32476;50.002;11.854;2023-01-08T08:04:44;45.53;;;24.43;;
46729;SDS011;32476;50.002;11.854;2023-01-08T08:07:10;38.23;;;22.47;;
46729;SDS011;32476;50.002;11.854;2023-01-08T08:09:37;36.87;;;21.20;;
46729;SDS011;32476;50.002;11.854;2023-01-08T08:12:03;37.07;;;21.93;;
46729;SDS011;32476;50.002;11.854;2023-01-08T08:14:29;36.80;;;21.70;;
46729;SDS011;32476;50.002;11.854;2023-01-08T08:16:57;40.20;;;21.53;;
46729;SDS011;32476;50.002;11.854;2023-01-08T08:19:23;36.40;;;21.57;;
46729;SDS011;32476;50.002;11.854;2023-01-08T08:21:48;37.67;;;22.17;;
46729;SDS011;32476;50.002;11.854;2023-01-08T08:24:16;38.60;;;22.53;;
46729;SDS011;32476;50.002;11.854;2023-01-08T08:26:42;36.47;;;21.27;;
46729;SDS011;32476;50.002;11.854;2023-01-08T08:29:08;34.30;;;21.20;;
46729;SDS011;32476;50.002;11.854;2023-01-08T08:31:35;32.93;;;20.73;;
46729;SDS011;32476;50.002;11.854;2023-01-08T08:34:01;32.93;;;19.67;;
46729;SDS011;32476;50.002;11.854;2023-01-08T08:36:29;36.60;;;20.00;;
46729;SDS011;32476;50.002;11.854;2023-01-08T08:38:57;33.67;;;20.43;;
46729;SDS011;32476;50.002;11.854;2023-01-08T08:41:23;37.27;;;22.77;;
46729;SDS011;32476;50.002;11.854;2023-01-08T08:43:49;43.73;;;23.03;;
46729;SDS011;32476;50.002;11.854;2023-01-08T08:46:17;34.57;;;21.73;;
46729;SDS011;32476;50.002;11.854;2023-01-08T08:48:43;32.90;;;18.87;;
46729;SDS011;32476;50.002;11.854;2023-01-08T08:51:10;32.70;;;19.63;;
46729;SDS011;32476;50.002;11.854;2023-01-08T08:53:38;33.93;;;20.27;;
46729;SDS011;32476;50.002;11.854;2023-01-08T08:56:04;30.77;;;19.67;;
46729;SDS011;32476;50.002;11.854;2023-01-08T08:58:30;33.77;;;21.07;;
46729;SDS011;32476;50.002;11.854;2023-01-08T09:01:02;34.00;;;21.10;;
46729;SDS011;32476;50.002;11.854;2023-01-08T09:03:29;28.80;;;18.63;;
46729;SDS011;32476;50.002;11.854;2023-01-08T09:05:55;31.50;;;19.43;;
46729;SDS011;32476;50.002;11.854;2023-01-08T09:08:22;25.70;;;16.43;;
46729;SDS011;32476;50.002;11.854;2023-01-08T09:10:48;26.43;;;16.57;;
46729;SDS011;32476;50.002;11.854;2023-01-08T09:13:14;23.70;;;15.97;;
46729;SDS011;32476;50.002;11.854;2023-01-08T09:15:42;27.90;;;17.80;;
46729;SDS011;32476;50.002;11.854;2023-01-08T09:18:08;22.60;;;15.63;;
46729;SDS011;32476;50.002;11.854;2023-01-08T09:20:34;24.57;;;15.13;;
46729;SDS011;32476;50.002;11.854;2023-01-08T09:23:02;22.83;;;14.57;;
46729;SDS011;32476;50.002;11.854;2023-01-08T09:25:28;25.47;;;16.33;;
46729;SDS011;32476;50.002;11.854;2023-01-08T09:27:59;26.00;;;16.63;;
46729;SDS011;32476;50.002;11.854;2023-01-08T09:30:32;24.87;;;16.53;;
46729;SDS011;32476;50.002;11.854;2023-01-08T09:32:59;23.40;;;15.20;;
46729;SDS011;32476;50.002;11.854;2023-01-08T09:35:27;19.90;;;12.97;;
46729;SDS011;32476;50.002;11.854;2023-01-08T09:37:54;22.83;;;13.20;;
46729;SDS011;32476;50.002;11.854;2023-01-08T09:40:23;20.10;;;14.80;;
46729;SDS011;32476;50.002;11.854;2023-01-08T09:43:00;21.37;;;13.40;;
46729;SDS011;32476;50.002;11.854;2023-01-08T09:45:32;22.37;;;14.47;;
46729;SDS011;32476;50.002;11.854;2023-01-08T09:48:05;21.57;;;14.77;;
46729;SDS011;32476;50.002;11.854;2023-01-08T09:50:40;21.83;;;15.10;;
46729;SDS011;32476;50.002;11.854;2023-01-08T09:53:12;19.77;;;13.07;;
46729;SDS011;32476;50.002;11.854;2023-01-08T09:55:41;18.43;;;13.03;;
46729;SDS011;32476;50.002;11.854;2023-01-08T09:58:20;19.07;;;13.03;;
46729;SDS011;32476;50.002;11.854;2023-01-08T10:01:25;19.03;;;13.23;;
46729;SDS011;32476;50.002;11.854;2023-01-08T10:04:16;21.27;;;13.67;;
46729;SDS011;32476;50.002;11.854;2023-01-08T10:06:55;17.90;;;12.97;;
46729;SDS011;32476;50.002;11.854;2023-01-08T10:09:27;20.23;;;13.00;;
46729;SDS011;32476;50.002;11.854;2023-01-08T10:11:59;38.13;;;26.63;;
46729;SDS011;32476;50.002;11.854;2023-01-08T10:14:31;30.17;;;19.33;;
46729;SDS011;32476;50.002;11.854;2023-01-08T10:20:13;32.47;;;20.97;;
46729;SDS011;32476;50.002;11.854;2023-01-08T10:22:50;34.03;;;22.17;;
46729;SDS011;32476;50.002;11.854;2023-01-08T10:25:24;40.63;;;28.80;;
46729;SDS011;32476;50.002;11.854;2023-01-08T10:27:59;33.17;;;26.67;;
46729;SDS011;32476;50.002;11.854;2023-01-08T10:33:10;21.03;;;17.60;;
46729;SDS011;32476;50.002;11.854;2023-01-08T10:35:55;14.70;;;9.73;;
46729;SDS011;32476;50.002;11.854;2023-01-08T10:38:29;24.97;;;17.57;;
46729;SDS011;32476;50.002;11.854;2023-01-08T10:41:02;22.53;;;16.10;;
46729;SDS011;32476;50.002;11.854;2023-01-08T10:43:52;9.43;;;6.47;;
46729;SDS011;32476;50.002;11.854;2023-01-08T10:46:23;8.90;;;5.50;;
46729;SDS011;32476;50.002;11.854;2023-01-08T10:48:56;10.90;;;6.87;;
46729;SDS011;32476;50.002;11.854;2023-01-08T10:51:27;14.30;;;9.60;;
46729;SDS011;32476;50.002;11.854;2023-01-08T10:54:00;16.17;;;9.60;;
46729;SDS011;32476;50.002;11.854;2023-01-08T10:56:53;13.27;;;7.10;;
46729;SDS011;32476;50.002;11.854;2023-01-08T10:59:19;7.83;;;5.33;;
46729;SDS011;32476;50.002;11.854;2023-01-08T11:01:48;10.83;;;8.80;;
46729;SDS011;32476;50.002;11.854;2023-01-08T11:04:28;9.37;;;5.20;;
46729;SDS011;32476;50.002;11.854;2023-01-08T11:06:59;4.93;;;4.17;;
46729;SDS011;32476;50.002;11.854;2023-01-08T11:09:33;7.57;;;5.80;;
46729;SDS011;32476;50.002;11.854;2023-01-08T11:12:18;5.83;;;4.77;;
46729;SDS011;32476;50.002;11.854;2023-01-08T11:15:28;4.40;;;3.17;;
46729;SDS011;32476;50.002;11.854;2023-01-08T11:18:03;6.93;;;3.70;;
46729;SDS011;32476;50.002;11.854;2023-01-08T11:20:47;5.97;;;4.67;;
46729;SDS011;32476;50.002;11.854;2023-01-08T11:23:19;10.67;;;8.33;;
46729;SDS011;32476;50.002;11.854;2023-01-08T11:26:10;19.13;;;10.13;;
46729;SDS011;32476;50.002;11.854;2023-01-08T11:29:02;18.53;;;15.97;;
46729;SDS011;32476;50.002;11.854;2023-01-08T11:31:42;8.17;;;5.73;;
46729;SDS011;32476;50.002;11.854;2023-01-08T11:37:07;9.13;;;7.17;;
46729;SDS011;32476;50.002;11.854;2023-01-08T11:39:39;8.07;;;5.50;;
46729;SDS011;32476;50.002;11.854;2023-01-08T11:45:01;8.70;;;6.80;;
46729;SDS011;32476;50.002;11.854;2023-01-08T11:50:45;7.20;;;5.30;;
46729;SDS011;32476;50.002;11.854;2023-01-08T11:53:54;13.90;;;9.43;;
46729;SDS011;32476;50.002;11.854;2023-01-08T11:56:52;11.37;;;8.73;;
46729;SDS011;32476;50.002;11.854;2023-01-08T11:59:50;12.10;;;8.20;;
46729;SDS011;32476;50.002;11.854;2023-01-08T12:05:25;9.93;;;6.73;;
46729;SDS011;32476;50.002;11.854;2023-01-08T12:08:11;11.33;;;7.27;;
46729;SDS011;32476;50.002;11.854;2023-01-08T12:11:27;8.93;;;5.63;;
46729;SDS011;32476;50.002;11.854;2023-01-08T12:23:10;14.57;;;11.20;;
46729;SDS011;32476;50.002;11.854;2023-01-08T12:26:07;9.07;;;7.47;;
46729;SDS011;32476;50.002;11.854;2023-01-08T12:28:54;15.93;;;9.63;;
46729;SDS011;32476;50.002;11.854;2023-01-08T12:32:07;8.00;;;5.63;;
46729;SDS011;32476;50.002;11.854;2023-01-08T12:34:48;9.40;;;5.23;;
46729;SDS011;32476;50.002;11.854;2023-01-08T12:37:35;8.40;;;6.17;;
46729;SDS011;32476;50.002;11.854;2023-01-08T12:43:28;9.53;;;6.47;;
46729;SDS011;32476;50.002;11.854;2023-01-08T12:45:58;10.50;;;7.17;;
46729;SDS011;32476;50.002;11.854;2023-01-08T12:48:26;7.40;;;4.90;;
46729;SDS011;32476;50.002;11.854;2023-01-08T12:51:14;5.47;;;4.13;;
46729;SDS011;32476;50.002;11.854;2023-01-08T12:56:59;4.23;;;3.73;;
46729;SDS011;32476;50.002;11.854;2023-01-08T12:59:45;3.93;;;3.40;;
46729;SDS011;32476;50.002;11.854;2023-01-08T13:02:33;11.90;;;10.70;;
46729;SDS011;32476;50.002;11.854;2023-01-08T13:07:50;9.93;;;7.70;;
46729;SDS011;32476;50.002;11.854;2023-01-08T13:10:20;4.93;;;4.27;;
46729;SDS011;32476;50.002;11.854;2023-01-08T13:12:58;7.50;;;6.77;;
46729;SDS011;32476;50.002;11.854;2023-01-08T13:15:26;7.03;;;3.93;;
46729;SDS011;32476;50.002;11.854;2023-01-08T13:18:06;9.13;;;8.23;;
46729;SDS011;32476;50.002;11.854;2023-01-08T13:20:42;25.47;;;23.20;;
46729;SDS011;32476;50.002;11.854;2023-01-08T13:23:27;10.20;;;9.23;;
46729;SDS011;32476;50.002;11.854;2023-01-08T13:25:57;8.53;;;7.73;;
46729;SDS011;32476;50.002;11.854;2023-01-08T13:28:27;8.90;;;7.63;;
46729;SDS011;32476;50.002;11.854;2023-01-08T13:33:45;7.63;;;6.33;;
46729;SDS011;32476;50.002;11.854;2023-01-08T13:36:25;8.03;;;7.00;;
46729;SDS011;32476;50.002;11.854;2023-01-08T13:41:36;18.40;;;12.30;;
46729;SDS011;32476;50.002;11.854;2023-01-08T13:44:16;23.23;;;14.33;;
46729;SDS011;32476;50.002;11.854;2023-01-08T13:47:03;15.57;;;10.30;;
46729;SDS011;32476;50.002;11.854;2023-01-08T13:49:41;13.50;;;10.50;;
46729;SDS011;32476;50.002;11.854;2023-01-08T13:55:10;19.87;;;14.70;;
46729;SDS011;32476;50.002;11.854;2023-01-08T13:57:52;13.00;;;9.83;;
46729;SDS011;32476;50.002;11.854;2023-01-08T14:00:24;13.70;;;10.43;;
46729;SDS011;32476;50.002;11.854;2023-01-08T14:02:56;12.37;;;8.33;;
46729;SDS011;32476;50.002;11.854;2023-01-08T14:05:24;13.10;;;9.53;;
46729;SDS011;32476;50.002;11.854;2023-01-08T14:07:57;13.40;;;9.00;;
46729;SDS011;32476;50.002;11.854;2023-01-08T14:10:26;13.77;;;9.17;;
46729;SDS011;32476;50.002;11.854;2023-01-08T14:13:15;13.17;;;9.80;;
46729;SDS011;32476;50.002;11.854;2023-01-08T14:15:42;14.03;;;9.83;;
46729;SDS011;32476;50.002;11.854;2023-01-08T14:18:11;13.07;;;9.17;;
46729;SDS011;32476;50.002;11.854;2023-01-08T14:20:39;18.27;;;9.50;;
46729;SDS011;32476;50.002;11.854;2023-01-08T14:23:16;11.37;;;8.60;;
46729;SDS011;32476;50.002;11.854;2023-01-08T14:25:57;10.43;;;8.03;;
46729;SDS011;32476;50.002;11.854;2023-01-08T14:28:29;12.57;;;8.00;;
46729;SDS011;32476;50.002;11.854;2023-01-08T14:30:55;12.67;;;8.93;;
46729;SDS011;32476;50.002;11.854;2023-01-08T14:33:29;14.77;;;11.43;;
46729;SDS011;32476;50.002;11.854;2023-01-08T14:36:01;84.30;;;68.03;;
46729;SDS011;32476;50.002;11.854;2023-01-08T14:38:30;13.63;;;10.53;;
46729;SDS011;32476;50.002;11.854;2023-01-08T14:40:58;20.77;;;16.70;;
46729;SDS011;32476;50.002;11.854;2023-01-08T14:43:33;23.30;;;16.70;;
46729;SDS011;32476;50.002;11.854;2023-01-08T14:46:13;36.27;;;25.63;;
46729;SDS011;32476;50.002;11.854;2023-01-08T14:48:55;64.57;;;45.73;;
46729;SDS011;32476;50.002;11.854;2023-01-08T14:51:22;77.90;;;51.80;;
46729;SDS011;32476;50.002;11.854;2023-01-08T14:54:01;45.70;;;32.30;;
46729;SDS011;32476;50.002;11.854;2023-01-08T14:56:32;31.50;;;22.83;;
46729;SDS011;32476;50.002;11.854;2023-01-08T14:59:05;18.97;;;14.80;;
46729;SDS011;32476;50.002;11.854;2023-01-08T15:01:35;18.47;;;16.43;;
46729;SDS011;32476;50.002;11.854;2023-01-08T15:04:05;14.37;;;12.10;;
46729;SDS011;32476;50.002;11.854;2023-01-08T15:06:40;12.23;;;10.33;;
46729;SDS011;32476;50.002;11.854;2023-01-08T15:09:41;14.40;;;10.53;;
46729;SDS011;32476;50.002;11.854;2023-01-08T15:12:02;8.17;;;5.83;;
46729;SDS011;32476;50.002;11.854;2023-01-08T15:14:31;9.70;;;6.60;;
46729;SDS011;32476;50.002;11.854;2023-01-08T15:17:15;11.53;;;7.47;;
46729;SDS011;32476;50.002;11.854;2023-01-08T15:19:47;9.03;;;6.80;;
46729;SDS011;32476;50.002;11.854;2023-01-08T15:22:27;6.07;;;4.20;;
46729;SDS011;32476;50.002;11.854;2023-01-08T15:24:55;5.17;;;4.17;;
46729;SDS011;32476;50.002;11.854;2023-01-08T15:27:25;6.43;;;4.40;;
46729;SDS011;32476;50.002;11.854;2023-01-08T15:29:53;4.60;;;3.30;;
46729;SDS011;32476;50.002;11.854;2023-01-08T15:32:27;7.07;;;4.20;;
46729;SDS011;32476;50.002;11.854;2023-01-08T15:34:59;15.47;;;10.87;;
46729;SDS011;32476;50.002;11.854;2023-01-08T15:37:27;9.47;;;6.00;;